Time;durP1;ratioP1;P1;durP2;ratioP2;P2;SDS_P1;SDS_P2;PMS_P1;PMS_P2;Temp;Humidity;BMP_temperature;BMP_pressure;BME280_temperature;BME280_humidity;BME280_pressure;Samples;Min_cycle;Max_cycle;Signal;HPM_P1;HPM_P2
2023/04/15 00:00:06;;;;;;;8.32;5.00;;;;;;;7.66;100.00;99707.41;5007532;28;20052;-72
2023/04/15 00:02:31;;;;;;;6.45;5.00;;;;;;;7.60;100.00;99709.75;5010557;28;20034;-72
2023/04/15 00:04:56;;;;;;;4.47;4.07;;;;;;;7.55;100.00;99707.63;4997678;28;20101;-73
2023/04/15 00:07:22;;;;;;;8.25;4.90;;;;;;;7.51;100.00;99710.63;4997356;28;20036;-73
2023/04/15 00:09:47;;;;;;;6.82;4.82;;;;;;;7.51;100.00;99700.28;4995584;28;20085;-73
2023/04/15 00:12:12;;;;;;;6.72;5.22;;;;;;;7.53;100.00;99706.13;5016034;28;20180;-72
2023/04/15 00:14:38;;;;;;;8.57;5.85;;;;;;;7.62;100.00;99698.28;5010280;28;20038;-72
2023/04/15 00:17:04;;;;;;;6.88;5.47;;;;;;;7.71;100.00;99690.59;5015898;28;20514;-73
2023/04/15 00:19:30;;;;;;;6.70;5.20;;;;;;;7.77;100.00;99706.41;5009986;28;20041;-73
2023/04/15 00:21:56;;;;;;;9.88;6.70;;;;;;;7.80;100.00;99698.34;5011030;28;20038;-73
2023/04/15 00:24:22;;;;;;;10.40;6.82;;;;;;;7.81;100.00;99706.94;5010494;28;20041;-73
2023/04/15 00:26:48;;;;;;;8.88;6.80;;;;;;;7.79;100.00;99704.47;5007286;28;20026;-73
2023/04/15 00:29:14;;;;;;;10.50;6.13;;;;;;;7.77;100.00;99705.59;5005837;28;20095;-73
2023/04/15 00:31:40;;;;;;;8.13;5.80;;;;;;;7.73;100.00;99693.88;5008522;28;20450;-72
2023/04/15 00:34:05;;;;;;;7.57;5.07;;;;;;;7.60;100.00;99700.19;5008473;28;20104;-73
2023/04/15 00:36:32;;;;;;;5.55;4.30;;;;;;;7.56;100.00;99692.88;5007437;28;20535;-72
2023/04/15 00:38:58;;;;;;;6.25;4.10;;;;;;;7.56;100.00;99698.06;5005952;28;20189;-73
2023/04/15 00:41:24;;;;;;;5.65;4.55;;;;;;;7.62;100.00;99698.28;5009274;28;20437;-72
2023/04/15 00:43:49;;;;;;;5.45;4.30;;;;;;;7.63;100.00;99694.72;5004931;28;20104;-73
2023/04/15 00:46:19;;;;;;;8.82;5.03;;;;;;;7.63;100.00;99694.72;5003389;28;20068;-73
2023/04/15 00:48:46;;;;;;;7.80;5.13;;;;;;;7.60;100.00;99697.59;5008086;28;20040;-74
2023/04/15 00:51:12;;;;;;;8.27;5.32;;;;;;;7.50;100.00;99690.88;5007682;28;20030;-73
2023/04/15 00:53:38;;;;;;;5.70;4.93;;;;;;;7.50;100.00;99688.28;5009800;28;20109;-73
2023/04/15 00:56:04;;;;;;;5.45;4.95;;;;;;;7.48;100.00;99691.00;5009658;28;20117;-73
2023/04/15 00:58:30;;;;;;;5.80;5.10;;;;;;;7.54;100.00;99687.03;5007808;28;20117;-73
2023/04/15 01:00:56;;;;;;;7.53;5.57;;;;;;;7.56;100.00;99683.31;5008792;28;20120;-73
2023/04/15 01:03:21;;;;;;;5.90;5.03;;;;;;;7.48;100.00;99691.00;5006598;28;20026;-73
2023/04/15 01:05:47;;;;;;;6.80;4.90;;;;;;;7.47;100.00;99683.38;5005770;28;20042;-73
2023/04/15 01:08:13;;;;;;;7.90;4.93;;;;;;;7.43;100.00;99689.81;5005992;28;20033;-73
2023/04/15 01:10:39;;;;;;;8.48;5.57;;;;;;;7.42;100.00;99678.63;5006666;28;20176;-73
2023/04/15 01:13:04;;;;;;;8.02;4.70;;;;;;;7.41;100.00;99682.16;5006137;28;20029;-73
2023/04/15 01:15:30;;;;;;;7.55;4.85;;;;;;;7.41;100.00;99673.56;5004624;28;20123;-73
2023/04/15 01:17:59;;;;;;;6.72;5.10;;;;;;;7.41;100.00;99671.81;5006055;28;20172;-73
2023/04/15 01:20:26;;;;;;;6.18;4.60;;;;;;;7.44;100.00;99673.28;5008271;28;20069;-73
2023/04/15 01:22:53;;;;;;;6.93;5.32;;;;;;;7.47;100.00;99679.00;5002996;28;20030;-73
2023/04/15 01:25:33;;;;;;;8.00;4.70;;;;;;;7.50;100.00;99675.31;5007184;28;20030;-73
2023/04/15 01:27:59;;;;;;;8.85;5.10;;;;;;;7.51;100.00;99667.38;5010283;28;20042;-73
2023/04/15 01:30:25;;;;;;;8.57;5.10;;;;;;;7.55;100.00;99671.34;5008190;28;20038;-73
2023/04/15 01:32:51;;;;;;;7.32;4.80;;;;;;;7.56;100.00;99667.75;5007238;28;20394;-73
2023/04/15 01:35:17;;;;;;;7.40;4.72;;;;;;;7.58;100.00;99671.00;5007077;28;20037;-73
2023/04/15 01:37:43;;;;;;;4.72;3.80;;;;;;;7.45;100.00;99661.97;5007876;28;20486;-73
2023/04/15 01:40:09;;;;;;;7.50;3.63;;;;;;;7.39;100.00;99662.53;5011322;28;20083;-73
2023/04/15 01:42:36;;;;;;;5.63;4.30;;;;;;;7.32;100.00;99665.69;5009393;28;20795;-73
2023/04/15 01:45:02;;;;;;;5.15;3.35;;;;;;;7.30;100.00;99661.63;5007919;28;20109;-73
2023/04/15 01:47:28;;;;;;;5.32;4.15;;;;;;;7.41;100.00;99660.63;5006622;28;20048;-74
2023/04/15 01:49:53;;;;;;;4.07;3.35;;;;;;;7.37;100.00;99664.44;5009994;28;20021;-74
2023/04/15 01:52:19;;;;;;;4.78;3.38;;;;;;;7.43;100.00;99669.88;5009638;28;20034;-74
2023/04/15 01:54:45;;;;;;;5.20;3.65;;;;;;;7.51;100.00;99669.97;5005574;28;20391;-74
2023/04/15 01:57:11;;;;;;;4.38;3.30;;;;;;;7.56;100.00;99667.75;5007125;28;20468;-74
2023/04/15 01:59:37;;;;;;;6.60;3.17;;;;;;;7.57;100.00;99663.38;5009655;28;20044;-74
2023/04/15 02:02:03;;;;;;;6.18;3.83;;;;;;;7.52;100.00;99674.22;5007371;28;20122;-74
2023/04/15 02:04:28;;;;;;;6.40;3.28;;;;;;;7.57;100.00;99671.97;5007327;28;20471;-74
2023/04/15 02:06:54;;;;;;;4.95;3.92;;;;;;;7.62;100.00;99666.34;5009765;28;20040;-74
2023/04/15 02:09:19;;;;;;;5.95;4.20;;;;;;;7.64;100.00;99665.25;5006811;28;20026;-74
2023/04/15 02:11:45;;;;;;;5.90;3.92;;;;;;;7.65;100.00;99673.84;5021832;28;20041;-74
2023/04/15 02:14:10;;;;;;;5.38;4.18;;;;;;;7.63;100.00;99673.16;5011430;28;20128;-74
2023/04/15 02:16:36;;;;;;;6.47;4.45;;;;;;;7.62;100.00;99672.34;5012790;28;20049;-74
2023/04/15 02:19:02;;;;;;;4.20;3.15;;;;;;;7.57;100.00;99674.56;5013221;28;20498;-74
2023/04/15 02:21:29;;;;;;;4.60;3.60;;;;;;;7.55;100.00;99671.34;5007527;28;20033;-74
2023/04/15 02:23:55;;;;;;;6.97;4.28;;;;;;;7.54;100.00;99664.50;5010699;28;20454;-73
2023/04/15 02:26:21;;;;;;;4.00;3.58;;;;;;;7.46;100.00;99667.00;5014316;28;20109;-73
2023/04/15 02:28:47;;;;;;;5.68;5.05;;;;;;;7.38;100.00;99661.72;5009173;28;20082;-74
2023/04/15 02:31:13;;;;;;;7.80;4.80;;;;;;;7.37;100.00;99667.88;5009346;28;20399;-73
2023/04/15 02:33:38;;;;;;;6.50;4.65;;;;;;;7.29;100.00;99663.38;5010117;28;20023;-74
2023/04/15 02:36:04;;;;;;;5.40;4.75;;;;;;;7.26;100.00;99655.91;5011360;28;20546;-74
2023/04/15 02:38:30;;;;;;;5.78;4.47;;;;;;;7.21;100.00;99652.91;5009191;28;20036;-73
2023/04/15 02:40:56;;;;;;;6.72;3.80;;;;;;;7.19;100.00;99646.25;5010358;28;20096;-73
2023/04/15 02:43:22;;;;;;;5.45;4.80;;;;;;;7.18;100.00;99636.84;5012061;28;20037;-74
2023/04/15 02:45:47;;;;;;;6.53;5.05;;;;;;;7.16;100.00;99638.75;5010140;28;20104;-73
2023/04/15 02:48:13;;;;;;;7.18;5.03;;;;;;;7.09;100.00;99648.09;5013995;28;20085;-73
2023/04/15 02:50:39;;;;;;;8.90;5.15;;;;;;;7.05;100.00;99651.91;5006379;28;20038;-73
2023/04/15 02:53:05;;;;;;;7.82;4.88;;;;;;;7.07;100.00;99652.59;5014352;28;20040;-73
2023/04/15 02:55:31;;;;;;;7.03;4.68;;;;;;;7.03;100.00;99641.69;5009667;28;20030;-74
2023/04/15 02:57:59;;;;;;;6.53;4.55;;;;;;;7.03;100.00;99643.47;5019896;28;20091;-74
2023/04/15 03:00:25;;;;;;;5.43;4.07;;;;;;;7.09;100.00;99648.09;5014150;28;20116;-74
2023/04/15 03:02:55;;;;;;;5.97;4.18;;;;;;;7.11;100.00;99648.72;5016884;28;20395;-74
2023/04/15 03:05:23;;;;;;;5.30;3.63;;;;;;;7.09;100.00;99645.50;5005315;28;20041;-74
2023/04/15 03:07:49;;;;;;;3.28;2.35;;;;;;;7.04;100.00;99639.91;5001319;28;20468;-74
2023/04/15 03:10:14;;;;;;;3.00;2.40;;;;;;;7.02;100.00;99642.66;5007209;28;20088;-74
2023/04/15 03:12:40;;;;;;;3.38;1.77;;;;;;;6.96;100.00;99638.03;5014309;28;20495;-74
2023/04/15 03:15:07;;;;;;;3.05;1.70;;;;;;;6.96;100.00;99650.97;5015468;28;20033;-74
2023/04/15 03:17:33;;;;;;;1.75;1.13;;;;;;;7.01;100.00;99646.19;5006107;28;20046;-74
2023/04/15 03:20:01;;;;;;;2.28;1.55;;;;;;;6.97;100.00;99655.19;5007659;28;20088;-74
2023/04/15 03:22:27;;;;;;;1.73;1.10;;;;;;;6.93;100.00;99659.84;5012578;28;20037;-74
2023/04/15 03:24:52;;;;;;;1.95;1.50;;;;;;;6.94;100.00;99658.88;5007624;28;20033;-74
2023/04/15 03:27:17;;;;;;;2.33;1.35;;;;;;;6.97;100.00;99656.03;5008993;28;20034;-74
2023/04/15 03:29:43;;;;;;;3.55;1.42;;;;;;;7.01;100.00;99653.16;5008624;28;20064;-74
2023/04/15 03:32:08;;;;;;;1.80;1.45;;;;;;;7.05;100.00;99652.72;5011586;28;20037;-74
2023/04/15 03:34:34;;;;;;;3.30;1.20;;;;;;;7.04;100.00;99652.88;5002820;28;20053;-75
2023/04/15 03:36:59;;;;;;;2.75;1.38;;;;;;;7.01;100.00;99651.38;5008712;28;20484;-74
2023/04/15 03:39:24;;;;;;;3.33;0.98;;;;;;;7.01;100.00;99660.91;5016023;28;20048;-75
2023/04/15 03:41:50;;;;;;;3.00;1.40;;;;;;;7.09;100.00;99658.44;5008203;28;20073;-74
2023/04/15 03:44:15;;;;;;;2.72;1.20;;;;;;;7.13;100.00;99659.75;5008658;28;20064;-74
2023/04/15 03:46:41;;;;;;;3.28;1.40;;;;;;;7.09;100.00;99658.44;5012240;28;20525;-74
2023/04/15 03:49:07;;;;;;;2.10;1.40;;;;;;;7.03;100.00;99653.81;5007903;28;20034;-74
2023/04/15 03:51:32;;;;;;;2.28;1.58;;;;;;;7.03;100.00;99653.81;5001963;28;20034;-75
2023/04/15 03:53:57;;;;;;;1.80;1.40;;;;;;;7.04;100.00;99651.09;5008501;28;20085;-74
2023/04/15 03:56:23;;;;;;;3.03;2.10;;;;;;;7.09;100.00;99650.66;5012946;28;20060;-74
2023/04/15 03:58:49;;;;;;;4.95;1.67;;;;;;;7.10;100.00;99647.91;5010549;28;20068;-74
2023/04/15 04:01:15;;;;;;;3.22;1.90;;;;;;;7.12;100.00;99652.94;5007974;28;20030;-74
2023/04/15 04:03:40;;;;;;;2.42;1.60;;;;;;;7.11;100.00;99657.31;5011589;28;20033;-74
2023/04/15 04:06:07;;;;;;;3.70;1.25;;;;;;;7.08;100.00;99657.63;5004909;28;20050;-74
2023/04/15 04:08:32;;;;;;;3.35;1.27;;;;;;;7.09;100.00;99661.03;5007279;28;20037;-74
2023/04/15 04:10:57;;;;;;;3.95;1.55;;;;;;;7.05;100.00;99649.31;5007092;28;20030;-74
2023/04/15 04:13:23;;;;;;;1.98;1.30;;;;;;;7.06;100.00;99654.38;5004578;28;20483;-74
2023/04/15 04:15:48;;;;;;;2.25;1.50;;;;;;;7.10;100.00;99652.28;5012980;28;20030;-74
2023/04/15 04:18:13;;;;;;;3.17;1.88;;;;;;;7.14;100.00;99645.84;5006650;28;20092;-74
2023/04/15 04:20:39;;;;;;;3.58;2.20;;;;;;;7.08;100.00;99649.03;5010627;28;20033;-74
2023/04/15 04:23:04;;;;;;;3.08;1.92;;;;;;;7.07;100.00;99645.63;5010387;28;20398;-74
2023/04/15 04:25:30;;;;;;;3.35;2.08;;;;;;;7.06;100.00;99653.53;5012792;28;20037;-74
2023/04/15 04:27:55;;;;;;;2.90;2.00;;;;;;;7.10;100.00;99654.88;5008962;28;20025;-74
2023/04/15 04:30:21;;;;;;;5.03;3.25;;;;;;;7.14;100.00;99651.03;5008544;28;20041;-75
2023/04/15 04:32:46;;;;;;;3.53;2.30;;;;;;;7.16;100.00;99659.47;5008309;28;20026;-74
2023/04/15 04:35:11;;;;;;;3.35;2.53;;;;;;;7.21;100.00;99655.50;5007336;28;20474;-74
2023/04/15 04:37:37;;;;;;;3.47;3.10;;;;;;;7.24;100.00;99657.81;5007577;28;20631;-75
2023/04/15 04:40:03;;;;;;;3.97;1.77;;;;;;;7.23;100.00;99655.38;5008663;28;20176;-74
2023/04/15 04:42:29;;;;;;;2.53;1.02;;;;;;;7.15;100.00;99663.03;5007246;28;20049;-74
2023/04/15 04:44:54;;;;;;;1.85;1.00;;;;;;;7.13;100.00;99664.94;5011254;28;20045;-74
2023/04/15 04:47:20;;;;;;;3.22;1.27;;;;;;;7.06;100.00;99671.69;5006084;28;20504;-74
2023/04/15 04:49:45;;;;;;;4.70;1.95;;;;;;;7.05;100.00;99680.41;5012211;28;20037;-74
2023/04/15 04:52:11;;;;;;;3.42;2.05;;;;;;;7.07;100.00;99676.72;5005839;28;20030;-74
2023/04/15 04:54:37;;;;;;;3.60;2.63;;;;;;;7.09;100.00;99674.00;5014815;28;20360;-74
2023/04/15 04:57:02;;;;;;;2.97;2.67;;;;;;;7.09;100.00;99663.63;5015318;28;20036;-74
2023/04/15 04:59:28;;;;;;;7.10;3.70;;;;;;;7.13;100.00;99670.94;5008555;28;20112;-74
2023/04/15 05:01:53;;;;;;;10.63;4.50;;;;;;;7.13;100.00;99672.72;5004128;28;20041;-74
2023/04/15 05:04:18;;;;;;;9.75;4.80;;;;;;;7.19;100.00;99675.56;5001728;28;20032;-74
2023/04/15 05:06:44;;;;;;;6.50;4.45;;;;;;;7.26;100.00;99678.41;5008765;28;20045;-74
2023/04/15 05:09:09;;;;;;;11.35;5.00;;;;;;;7.32;100.00;99673.47;5006353;28;20463;-74
2023/04/15 05:11:34;;;;;;;7.45;3.90;;;;;;;7.28;100.00;99674.72;5012452;28;20037;-74
2023/04/15 05:14:01;;;;;;;4.85;3.45;;;;;;;7.27;100.00;99677.44;5010348;28;20052;-74
2023/04/15 05:16:26;;;;;;;5.47;3.50;;;;;;;7.29;100.00;99676.34;5007741;28;20373;-74
2023/04/15 05:18:52;;;;;;;7.85;5.70;;;;;;;7.29;100.00;99678.13;5009664;28;20029;-74
2023/04/15 05:21:18;;;;;;;12.70;7.90;;;;;;;7.30;100.00;99679.75;5007275;28;20382;-74
2023/04/15 05:23:43;;;;;;;9.30;6.88;;;;;;;7.34;100.00;99673.34;5008610;28;20025;-74
2023/04/15 05:26:08;;;;;;;7.50;3.83;;;;;;;7.37;100.00;99682.59;5007640;28;20040;-74
2023/04/15 05:28:34;;;;;;;4.63;3.15;;;;;;;7.32;100.00;99685.59;5014311;28;20502;-74
2023/04/15 05:31:00;;;;;;;4.90;3.00;;;;;;;7.37;100.00;99687.78;5006220;28;20123;-74
2023/04/15 05:33:26;;;;;;;3.53;1.65;;;;;;;7.31;100.00;99678.78;5012885;28;20169;-74
2023/04/15 05:35:51;;;;;;;3.22;2.67;;;;;;;7.25;100.00;99687.94;5015616;28;20120;-74
2023/04/15 05:38:17;;;;;;;2.90;2.70;;;;;;;7.24;100.00;99690.69;5010093;28;20555;-74
2023/04/15 05:40:42;;;;;;;4.07;3.08;;;;;;;7.21;100.00;99690.97;5011914;28;20033;-74
2023/04/15 05:43:08;;;;;;;3.55;3.25;;;;;;;7.24;100.00;99688.09;5009596;28;20478;-74
2023/04/15 05:45:33;;;;;;;2.78;2.30;;;;;;;7.24;100.00;99686.31;5001767;28;20030;-74
2023/04/15 05:47:58;;;;;;;2.30;1.83;;;;;;;7.24;100.00;99682.91;5016342;28;20041;-74
2023/04/15 05:50:24;;;;;;;2.53;2.25;;;;;;;7.21;100.00;99693.56;5002307;28;20059;-73
2023/04/15 05:52:49;;;;;;;2.15;1.15;;;;;;;7.17;100.00;99698.19;5007292;28;20388;-74
2023/04/15 05:55:15;;;;;;;2.40;1.60;;;;;;;7.14;100.00;99695.88;5006833;28;20436;-74
2023/04/15 05:57:40;;;;;;;1.65;1.25;;;;;;;7.15;100.00;99694.94;5010813;28;20150;-74
2023/04/15 06:00:06;;;;;;;5.60;1.92;;;;;;;7.20;100.00;99697.09;5002163;28;20038;-74
2023/04/15 06:02:32;;;;;;;1.80;1.60;;;;;;;7.22;100.00;99696.00;5006370;28;20472;-74
2023/04/15 06:04:58;;;;;;;6.38;2.67;;;;;;;7.28;100.00;99692.84;5003027;28;20042;-74
2023/04/15 06:07:23;;;;;;;5.15;3.53;;;;;;;7.34;100.00;99688.88;5001522;28;20030;-74
2023/04/15 06:09:49;;;;;;;6.65;4.78;;;;;;;7.43;100.00;99687.22;5007972;28;20031;-74
2023/04/15 06:12:15;;;;;;;5.88;4.50;;;;;;;7.48;100.00;99692.78;5009109;28;20390;-73
2023/04/15 06:14:41;;;;;;;7.85;4.70;;;;;;;7.50;100.00;99704.63;5008945;28;20040;-73
2023/04/15 06:17:06;;;;;;;7.20;4.70;;;;;;;7.57;100.00;99699.66;5009453;28;20038;-74
2023/04/15 06:19:32;;;;;;;5.75;4.53;;;;;;;7.61;100.00;99701.03;5005508;28;20026;-74
2023/04/15 06:21:58;;;;;;;7.55;5.30;;;;;;;7.60;100.00;99697.59;4998862;28;20041;-74
2023/04/15 06:24:23;;;;;;;9.05;6.25;;;;;;;7.62;100.00;99690.50;5007160;28;20113;-74
2023/04/15 06:26:49;;;;;;;9.23;6.07;;;;;;;7.66;100.00;99693.63;5007313;28;20051;-74
2023/04/15 06:29:15;;;;;;;10.35;8.00;;;;;;;7.70;100.00;99691.56;5007255;28;20699;-74
2023/04/15 06:31:40;;;;;;;9.68;7.18;;;;;;;7.74;100.00;99693.72;5006504;28;20088;-74
2023/04/15 06:34:06;;;;;;;10.80;7.60;;;;;;;7.80;100.00;99697.53;5002619;28;20035;-73
2023/04/15 06:36:31;;;;;;;10.25;7.55;;;;;;;7.82;100.00;99687.81;5007043;28;20062;-73
2023/04/15 06:38:57;;;;;;;10.15;6.75;;;;;;;7.87;100.00;99686.41;5010942;28;20049;-74
2023/04/15 06:41:22;;;;;;;12.57;7.07;;;;;;;7.95;100.00;99693.47;5009060;28;20037;-73
2023/04/15 06:43:48;;;;;;;8.73;6.50;;;;;;;7.93;100.00;99698.00;5011396;28;20501;-74
2023/04/15 06:46:13;;;;;;;8.45;6.05;;;;;;;7.92;100.00;99698.94;5000504;28;20030;-74
2023/04/15 06:48:38;;;;;;;9.55;6.25;;;;;;;7.95;100.00;99696.88;5001859;28;20038;-74
2023/04/15 06:51:04;;;;;;;8.52;6.22;;;;;;;8.07;100.00;99710.44;5002224;28;20036;-74
2023/04/15 06:53:30;;;;;;;7.90;4.68;;;;;;;8.14;100.00;99706.31;5008086;28;20037;-74
2023/04/15 06:55:55;;;;;;;7.07;4.70;;;;;;;8.22;100.00;99703.78;5010375;28;20038;-74
2023/04/15 06:58:21;;;;;;;4.25;3.28;;;;;;;8.17;100.00;99698.22;5009224;28;20036;-74
2023/04/15 07:00:47;;;;;;;4.28;1.80;;;;;;;8.07;100.00;99692.28;5007739;28;20334;-74
2023/04/15 07:03:13;;;;;;;3.67;2.10;;;;;;;8.03;100.00;99693.56;5012870;28;20112;-73
2023/04/15 07:05:40;;;;;;;7.75;2.20;;;;;;;8.05;100.00;99702.00;5011502;28;20048;-72
2023/04/15 07:08:06;;;;;;;4.53;1.85;;;;;;;8.12;100.00;99695.25;5011833;28;20538;-74
2023/04/15 07:10:34;;;;;;;2.63;1.50;;;;;;;8.06;100.00;99706.22;5012131;28;20254;-72
2023/04/15 07:13:00;;;;;;;2.30;1.35;;;;;;;8.10;100.00;99699.78;5013311;28;20128;-73
2023/04/15 07:15:26;;;;;;;2.50;1.65;;;;;;;8.12;100.00;99695.25;5006850;28;20030;-73
2023/04/15 07:17:51;;;;;;;3.33;2.00;;;;;;;8.12;100.00;99702.22;5009159;28;20072;-73
2023/04/15 07:20:17;;;;;;;3.22;2.92;;;;;;;8.12;100.00;99700.44;5004069;28;20022;-72
2023/04/15 07:22:43;;;;;;;5.15;3.08;;;;;;;8.11;100.00;99705.78;5008944;28;20029;-73
2023/04/15 07:25:08;;;;;;;3.35;3.05;;;;;;;8.10;100.00;99704.97;5004291;28;20120;-72
2023/04/15 07:27:34;;;;;;;5.15;3.35;;;;;;;8.15;100.00;99705.34;5011828;28;20113;-74
2023/04/15 07:29:59;;;;;;;5.75;2.65;;;;;;;8.20;100.00;99703.13;5007124;28;20056;-73
2023/04/15 07:32:25;;;;;;;5.22;3.42;;;;;;;8.22;100.00;99705.56;5011213;28;20410;-73
2023/04/15 07:34:50;;;;;;;3.80;3.35;;;;;;;8.34;100.00;99708.78;5008274;28;20379;-73
2023/04/15 07:37:16;;;;;;;5.70;4.03;;;;;;;8.47;100.00;99712.66;5007962;28;20034;-73
2023/04/15 07:39:42;;;;;;;6.47;5.25;;;;;;;8.55;100.00;99706.69;5009640;28;20464;-73
2023/04/15 07:42:08;;;;;;;7.10;4.50;;;;;;;8.66;100.00;99711.66;5009259;28;20484;-74
2023/04/15 07:44:33;;;;;;;8.30;5.32;;;;;;;8.71;100.00;99708.59;5010443;28;20100;-74
2023/04/15 07:46:59;;;;;;;6.05;4.72;;;;;;;8.69;100.00;99706.16;5010405;28;20034;-73
2023/04/15 07:49:24;;;;;;;10.38;4.85;;;;;;;8.70;100.00;99715.59;5011736;28;20511;-73
2023/04/15 07:51:50;;;;;;;6.85;4.88;;;;;;;8.63;100.00;99714.56;5009677;28;20390;-73
2023/04/15 07:54:16;;;;;;;5.55;4.93;;;;;;;8.67;100.00;99712.47;5007048;28;20032;-74
2023/04/15 07:56:41;;;;;;;10.32;5.90;;;;;;;8.72;100.00;99720.63;5014776;28;20049;-74
2023/04/15 07:59:08;;;;;;;9.18;4.95;;;;;;;8.67;100.00;99721.06;5009616;28;20549;-74
2023/04/15 08:01:33;;;;;;;8.95;4.55;;;;;;;8.70;100.00;99723.38;5015621;28;20128;-74
2023/04/15 08:03:59;;;;;;;6.25;4.07;;;;;;;8.67;100.00;99723.69;5007648;28;20120;-75
2023/04/15 08:06:24;;;;;;;6.93;4.05;;;;;;;8.70;100.00;99725.16;5002421;28;20495;-74
2023/04/15 08:08:50;;;;;;;5.57;3.35;;;;;;;8.70;100.00;99720.78;5003181;28;20037;-74
2023/04/15 08:11:16;;;;;;;5.43;2.97;;;;;;;8.75;100.00;99723.75;5002390;28;20523;-76
2023/04/15 08:13:41;;;;;;;8.10;3.35;;;;;;;8.90;100.00;99722.25;5007992;28;20125;-72
2023/04/15 08:16:19;;;;;;;8.80;4.80;;;;;;;8.92;100.00;99719.50;5005636;28;20500;-74
2023/04/15 08:18:46;;;;;;;6.45;3.25;;;;;;;8.99;100.00;99715.28;5006335;28;20037;-74
2023/04/15 08:21:12;;;;;;;4.38;2.65;;;;;;;9.13;100.00;99719.13;5009483;28;20108;-74
2023/04/15 08:23:38;;;;;;;3.53;1.83;;;;;;;9.36;100.00;99722.84;5012880;28;20034;-74
2023/04/15 08:26:03;;;;;;;4.97;1.90;;;;;;;9.53;100.00;99719.34;5009829;28;20037;-74
2023/04/15 08:28:29;;;;;;;2.70;1.20;;;;;;;9.70;100.00;99724.59;5004178;28;20030;-74
2023/04/15 08:30:55;;;;;;;2.20;1.10;;;;;;;9.79;100.00;99721.88;5002345;28;20383;-74
2023/04/15 08:33:20;;;;;;;3.03;0.85;;;;;;;9.88;100.00;99725.34;5002374;28;20491;-76
2023/04/15 08:35:47;;;;;;;3.70;0.70;;;;;;;9.99;100.00;99727.63;5005854;28;20117;-75
2023/04/15 08:38:13;;;;;;;3.90;0.50;;;;;;;10.17;100.00;99732.72;5003742;28;20041;-72
2023/04/15 08:40:45;;;;;;;5.65;0.60;;;;;;;10.29;100.00;99718.47;5001846;28;20037;-73
2023/04/15 08:43:25;;;;;;;4.80;0.85;;;;;;;10.39;100.00;99726.13;5003321;28;20038;-74
2023/04/15 08:45:52;;;;;;;2.88;0.70;;;;;;;10.49;100.00;99724.16;5041187;28;20041;-74
2023/04/15 08:48:18;;;;;;;5.10;0.60;;;;;;;10.57;100.00;99724.97;5001836;28;20034;-74
2023/04/15 08:50:45;;;;;;;2.35;0.65;;;;;;;10.56;100.00;99728.56;5004140;28;20034;-75
2023/04/15 08:53:11;;;;;;;3.30;1.10;;;;;;;10.52;100.00;99727.25;5006618;28;20045;-74
2023/04/15 08:55:43;;;;;;;3.63;1.10;;;;;;;10.49;100.00;99734.56;5009031;28;20029;-74
2023/04/15 08:58:10;;;;;;;2.95;1.02;;;;;;;10.55;100.00;99734.75;5003599;28;20030;-74
2023/04/15 09:00:35;;;;;;;3.17;0.80;;;;;;;10.56;100.00;99733.78;5001443;28;20037;-74
2023/04/15 09:03:01;;;;;;;6.00;0.98;;;;;;;10.60;100.00;99735.06;5002916;28;20092;-74
2023/04/15 09:05:26;;;;;;;5.68;0.65;;;;;;;10.70;100.00;99737.53;5006415;28;20038;-74
2023/04/15 09:07:52;;;;;;;2.13;0.50;;;;;;;10.79;100.00;99735.75;5007625;28;20554;-74
2023/04/15 09:10:17;;;;;;;3.22;0.60;;;;;;;10.77;100.00;99741.13;5006946;28;20040;-75
2023/04/15 09:12:43;;;;;;;5.80;1.20;;;;;;;10.89;100.00;99734.56;5004625;28;20065;-74
2023/04/15 09:15:11;;;;;;;4.15;1.10;;;;;;;10.92;100.00;99736.84;5002665;28;20129;-74
2023/04/15 09:17:42;;;;;;;2.78;0.95;;;;;;;10.88;100.00;99735.53;5005116;28;20104;-74
2023/04/15 09:20:17;;;;;;;2.40;0.73;;;;;;;10.87;100.00;99736.53;5006265;28;20479;-74
2023/04/15 09:22:45;;;;;;;2.17;0.63;;;;;;;10.93;100.00;99741.09;5008072;28;20483;-73
2023/04/15 09:25:28;;;;;;;2.60;0.70;;;;;;;10.92;100.00;99734.25;5005908;28;20048;-76
2023/04/15 09:27:56;;;;;;;3.38;0.75;;;;;;;10.95;100.00;99736.53;5008951;28;20025;-74
2023/04/15 09:30:22;;;;;;;2.45;0.95;;;;;;;10.95;100.00;99746.94;5006572;28;20035;-74
2023/04/15 09:32:55;;;;;;;2.67;0.52;;;;;;;10.93;100.00;99740.28;5008282;28;20037;-73
2023/04/15 09:35:22;;;;;;;2.95;0.90;;;;;;;11.00;100.00;99743.84;5007817;28;20034;-73
2023/04/15 09:37:51;;;;;;;3.53;1.30;;;;;;;11.11;100.00;99742.69;5014155;28;20053;-74
2023/04/15 09:40:41;;;;;;;3.35;1.20;;;;;;;11.19;100.00;99740.91;5011383;28;20121;-73
2023/04/15 09:43:08;;;;;;;3.67;0.85;;;;;;;11.36;100.00;99744.25;5006211;28;20033;-73
2023/04/15 09:45:35;;;;;;;4.13;0.50;;;;;;;11.40;100.00;99731.72;5009427;28;20041;-74
2023/04/15 09:48:25;;;;;;;1.73;0.47;;;;;;;11.32;100.00;99742.19;5007075;28;20029;-73
2023/04/15 09:50:56;;;;;;;2.22;0.40;;;;;;;11.36;100.00;99740.84;5006771;28;20049;-73
2023/04/15 09:53:23;;;;;;;2.47;0.60;;;;;;;11.39;100.00;99749.16;5006031;28;20026;-74
2023/04/15 09:55:54;;;;;;;2.97;1.00;;;;;;;11.42;100.00;99735.78;5008178;28;20034;-74
2023/04/15 09:58:25;;;;;;;4.03;0.70;;;;;;;11.60;100.00;99741.59;5009149;28;20028;-74
2023/04/15 10:00:52;;;;;;;5.53;1.00;;;;;;;11.67;100.00;99740.94;5007331;28;21196;-68
2023/04/15 10:03:20;;;;;;;4.75;0.88;;;;;;;11.71;100.00;99740.41;5008036;28;20060;-67
2023/04/15 10:05:48;;;;;;;6.93;1.17;;;;;;;11.73;100.00;99737.66;5008950;28;20042;-67
2023/04/15 10:08:17;;;;;;;2.47;0.43;;;;;;;11.78;100.00;99745.81;5008205;28;20522;-74
2023/04/15 10:10:43;;;;;;;1.73;0.40;;;;;;;11.79;100.00;99739.59;5007524;28;20384;-73
2023/04/15 10:13:10;;;;;;;2.33;0.70;;;;;;;11.71;100.00;99737.00;5009090;28;20450;-74
2023/04/15 10:15:36;;;;;;;4.05;0.47;;;;;;;11.72;100.00;99738.63;5011435;28;20044;-73
2023/04/15 10:18:04;;;;;;;3.55;0.40;;;;;;;11.68;100.00;99742.56;5008208;28;20056;-72
2023/04/15 10:20:30;;;;;;;2.70;0.30;;;;;;;11.57;100.00;99738.50;5002003;28;20033;-73
2023/04/15 10:22:56;;;;;;;6.20;0.73;;;;;;;11.56;100.00;99740.31;5005454;28;20040;-74
2023/04/15 10:25:24;;;;;;;7.63;0.60;;;;;;;11.51;100.00;99734.78;4995426;28;20464;-73
2023/04/15 10:27:51;;;;;;;3.33;0.50;;;;;;;11.44;100.00;99746.84;4999966;28;20111;-73
2023/04/15 10:30:17;;;;;;;3.75;0.30;;;;;;;11.36;100.00;99746.88;5000977;28;20033;-73
2023/04/15 10:32:44;;;;;;;3.80;0.40;;;;;;;11.38;100.00;99746.72;5006882;28;20040;-72
2023/04/15 10:35:10;;;;;;;3.22;0.30;;;;;;;11.35;100.00;99747.84;5005083;28;20030;-72
2023/04/15 10:37:37;;;;;;;0.68;0.20;;;;;;;11.39;97.92;99740.50;5001032;28;20041;-72
2023/04/15 10:40:26;;;;;;;1.77;0.30;;;;;;;11.54;94.58;99742.25;5002232;28;20399;-72
2023/04/15 10:42:56;;;;;;;2.15;0.30;;;;;;;11.82;94.98;99737.44;5009547;28;20022;-72
2023/04/15 10:45:26;;;;;;;12.38;0.40;;;;;;;11.84;90.50;99738.09;5006278;28;20041;-71
2023/04/15 10:47:55;;;;;;;1.02;0.13;;;;;;;11.86;92.12;99748.38;5005936;28;20084;-71
2023/04/15 10:50:21;;;;;;;0.40;0.10;;;;;;;11.88;91.33;99731.53;5006814;28;20049;-72
2023/04/15 10:52:50;;;;;;;0.20;0.10;;;;;;;11.80;88.54;99743.84;5008204;28;20034;-71
2023/04/15 10:55:22;;;;;;;0.28;0.00;;;;;;;11.71;85.49;99735.19;5008974;28;20042;-72
2023/04/15 10:57:51;;;;;;;0.90;0.10;;;;;;;11.77;84.88;99738.97;5010060;28;20041;-72
2023/04/15 11:00:18;;;;;;;1.55;0.08;;;;;;;11.83;85.76;99731.25;5040526;28;20096;-73
2023/04/15 11:02:46;;;;;;;1.05;0.00;;;;;;;11.82;84.83;99732.22;5009001;28;20112;-72
2023/04/15 11:05:14;;;;;;;0.35;0.10;;;;;;;11.82;83.60;99737.44;5007284;28;20057;-72
2023/04/15 11:07:47;;;;;;;1.40;0.00;;;;;;;11.77;83.41;99738.97;5012516;28;20026;-72
2023/04/15 11:10:12;;;;;;;0.60;0.10;;;;;;;11.66;82.70;99726.25;5010987;28;20122;-72
2023/04/15 11:12:39;;;;;;;0.10;0.00;;;;;;;11.47;82.58;99743.09;5012829;28;20156;-72
2023/04/15 11:15:30;;;;;;;1.88;0.10;;;;;;;11.41;79.49;99730.72;5013147;28;20057;-72
2023/04/15 11:17:57;;;;;;;0.10;0.00;;;;;;;11.31;84.42;99733.56;5008994;28;20113;-72
2023/04/15 11:20:23;;;;;;;0.80;0.10;;;;;;;11.22;83.50;99739.75;5010264;28;20034;-72
2023/04/15 11:22:50;;;;;;;0.60;0.00;;;;;;;11.14;84.87;99735.38;5010905;28;20100;-72
2023/04/15 11:25:29;;;;;;;0.32;0.10;;;;;;;10.88;81.29;99740.75;5002577;28;20039;-72
2023/04/15 11:27:56;;;;;;;0.65;0.00;;;;;;;10.68;86.28;99743.88;5000883;28;20685;-72